In Rescue
 
Open Full Screen Window  High Contrast Mode
Wind Gusting 00 knots
10
March 29, 2020 8:26 PM CDT
Weather Information
Wind Direction
  300 °
Wind Speed
  10 kt (12 mph)
Wind Gust
  00 kt (0 mph)
Altimeter
30.03 in
Visibility
10 SM
Temperature
08° C
46° F
Dewpoint
00° C
32° F
Humidity
57%
1hr Rain Fall
00.00 in.
24hr Rain Fall
00.18 in.
Sky Condition
Clear
VFR

METAR KULM 300126Z AUTO 30010KT 10SM CLR 08/00 A3003 RMK AO2

FAA Disclaimer: The data displayed is for advisory purposes only and is not to be used for flight planning or operations.